createdAt,value
2023-08-07T00:00:27.658Z,13.87
2023-08-07T00:01:27.706Z,13.89
2023-08-07T00:02:27.734Z,13.89
2023-08-07T00:03:27.639Z,13.88
2023-08-07T00:04:27.654Z,13.84
2023-08-07T00:05:27.594Z,13.82
2023-08-07T00:06:27.570Z,13.80
2023-08-07T00:07:27.577Z,13.75
2023-08-07T00:08:27.663Z,13.73
2023-08-07T00:09:27.545Z,13.78
2023-08-07T00:10:27.535Z,13.81
2023-08-07T00:11:27.535Z,13.83
2023-08-07T00:12:27.517Z,13.84
2023-08-07T00:13:27.507Z,13.84
2023-08-07T00:14:27.526Z,13.86
2023-08-07T00:15:27.475Z,13.86
2023-08-07T00:16:27.472Z,13.83
2023-08-07T00:17:27.482Z,13.81
2023-08-07T00:18:27.453Z,13.80
2023-08-07T00:19:27.435Z,13.75
2023-08-07T00:20:27.440Z,13.73
2023-08-07T00:21:27.436Z,13.74
2023-08-07T00:22:27.452Z,13.79
2023-08-07T00:23:27.400Z,13.82
2023-08-07T00:24:27.394Z,13.84
2023-08-07T00:25:27.374Z,13.86
2023-08-07T00:26:27.371Z,13.87
2023-08-07T00:27:27.367Z,13.85
2023-08-07T00:28:27.469Z,13.82
2023-08-07T00:29:27.382Z,13.82
2023-08-07T00:30:27.377Z,13.83
2023-08-07T00:31:27.385Z,13.84
2023-08-07T00:32:27.358Z,13.83
2023-08-07T00:33:27.342Z,13.80
2023-08-07T00:34:27.281Z,13.79
2023-08-07T00:35:27.285Z,13.82
2023-08-07T00:36:27.304Z,13.86
2023-08-07T00:37:27.260Z,13.90
2023-08-07T00:38:27.253Z,13.94
2023-08-07T00:39:27.259Z,13.95
2023-08-07T00:40:27.212Z,13.93
2023-08-07T00:41:27.223Z,13.91
2023-08-07T00:42:27.234Z,13.89
2023-08-07T00:43:27.229Z,13.88
2023-08-07T00:44:27.178Z,13.88
2023-08-07T00:45:27.184Z,13.92
2023-08-07T00:46:27.195Z,13.96
2023-08-07T00:47:27.226Z,13.99
2023-08-07T00:48:27.171Z,14.00
2023-08-07T00:49:27.126Z,13.99
2023-08-07T00:50:34.278Z,13.96
2023-08-07T00:51:27.109Z,13.93
2023-08-07T00:52:27.117Z,13.89
2023-08-07T00:53:27.117Z,13.85
2023-08-07T00:54:27.112Z,13.84
2023-08-07T00:55:27.116Z,13.87
2023-08-07T00:56:27.065Z,13.91
2023-08-07T00:57:27.064Z,13.95
2023-08-07T00:58:27.077Z,13.96
2023-08-07T00:59:27.062Z,13.96
2023-08-07T01:00:27.024Z,13.93
2023-08-07T01:01:27.103Z,13.90
2023-08-07T01:02:27.110Z,13.90
2023-08-07T01:03:27.042Z,13.92
2023-08-07T01:04:27.021Z,13.93
2023-08-07T01:05:26.970Z,13.95
2023-08-07T01:06:26.949Z,13.96
2023-08-07T01:07:26.964Z,13.99
2023-08-07T01:08:26.933Z,14.01
2023-08-07T01:09:26.929Z,14.01
2023-08-07T01:10:26.936Z,14.00
2023-08-07T01:11:26.913Z,14.00
2023-08-07T01:12:26.961Z,13.99
2023-08-07T01:13:26.934Z,13.98
2023-08-07T01:14:26.871Z,13.98
2023-08-07T01:15:26.882Z,14.00
2023-08-07T01:16:26.898Z,14.02
2023-08-07T01:17:26.902Z,13.99
2023-08-07T01:18:26.890Z,13.95
2023-08-07T01:19:26.822Z,13.92
2023-08-07T01:20:26.823Z,13.94
2023-08-07T01:21:26.795Z,13.94
2023-08-07T01:22:26.815Z,13.90
2023-08-07T01:23:26.790Z,13.87
2023-08-07T01:24:26.762Z,13.89
2023-08-07T01:25:26.776Z,13.90
2023-08-07T01:26:26.821Z,13.91
2023-08-07T01:27:26.760Z,13.89
2023-08-07T01:28:26.738Z,13.86
2023-08-07T01:29:26.768Z,13.85
2023-08-07T01:30:26.764Z,13.82
2023-08-07T01:31:26.749Z,13.81
2023-08-07T01:32:26.725Z,13.83
2023-08-07T01:33:26.672Z,13.88
2023-08-07T01:34:26.662Z,13.89
2023-08-07T01:35:26.666Z,13.86
2023-08-07T01:36:26.677Z,13.84
2023-08-07T01:37:26.645Z,13.84
2023-08-07T01:38:26.700Z,13.86
2023-08-07T01:39:26.639Z,13.90
2023-08-07T01:40:26.633Z,13.95
2023-08-07T01:41:26.635Z,13.99
2023-08-07T01:42:26.634Z,14.04
2023-08-07T01:43:26.671Z,14.09
2023-08-07T01:44:26.630Z,14.12
2023-08-07T01:45:26.596Z,14.11
2023-08-07T01:46:26.581Z,14.08
2023-08-07T01:47:26.599Z,14.08
2023-08-07T01:48:27.281Z,14.07
2023-08-07T01:49:26.533Z,14.06
2023-08-07T01:50:26.527Z,14.05
2023-08-07T01:51:26.512Z,14.03
2023-08-07T01:52:26.488Z,14.02
2023-08-07T01:53:26.462Z,14.00
2023-08-07T01:54:26.460Z,14.00
2023-08-07T01:55:26.492Z,14.02
2023-08-07T01:56:26.435Z,14.00
2023-08-07T01:57:26.438Z,13.96
2023-08-07T01:58:26.462Z,13.96
2023-08-07T01:59:26.471Z,13.93
2023-08-07T02:00:26.425Z,13.91
2023-08-07T02:01:26.447Z,13.91
2023-08-07T02:02:26.450Z,13.91
2023-08-07T02:03:26.420Z,13.92
2023-08-07T02:04:26.374Z,13.90
2023-08-07T02:05:26.391Z,13.89
2023-08-07T02:06:26.331Z,13.90
2023-08-07T02:07:26.345Z,13.86
2023-08-07T02:08:26.353Z,13.83
2023-08-07T02:09:26.338Z,13.86
2023-08-07T02:10:26.313Z,13.91
2023-08-07T02:11:26.425Z,13.93
2023-08-07T02:12:26.330Z,13.95
2023-08-07T02:13:26.268Z,13.93
2023-08-07T02:14:26.323Z,13.88
2023-08-07T02:15:26.256Z,13.85
2023-08-07T02:16:26.307Z,13.83
2023-08-07T02:17:26.321Z,13.81
2023-08-07T02:18:26.249Z,13.82
2023-08-07T02:19:26.198Z,13.86
2023-08-07T02:20:26.329Z,13.91
2023-08-07T02:21:26.182Z,13.91
2023-08-07T02:22:26.184Z,13.89
2023-08-07T02:23:26.182Z,13.88
2023-08-07T02:24:26.147Z,13.90
2023-08-07T02:25:26.143Z,13.92
2023-08-07T02:26:26.150Z,13.93
2023-08-07T02:27:26.133Z,13.90
2023-08-07T02:28:26.106Z,13.82
2023-08-07T02:29:26.146Z,13.79
2023-08-07T02:30:26.078Z,13.75
2023-08-07T02:31:26.135Z,13.68
2023-08-07T02:32:26.129Z,13.65
2023-08-07T02:33:26.048Z,13.67
2023-08-07T02:34:26.051Z,13.70
2023-08-07T02:35:26.075Z,13.73
2023-08-07T02:36:26.086Z,13.74
2023-08-07T02:37:26.047Z,13.67
2023-08-07T02:38:26.009Z,13.60
2023-08-07T02:39:25.983Z,13.60
2023-08-07T02:40:26.005Z,13.61
2023-08-07T02:41:26.029Z,13.62
2023-08-07T02:42:25.958Z,13.61
2023-08-07T02:43:25.957Z,13.58
2023-08-07T02:44:25.947Z,13.56
2023-08-07T02:45:25.961Z,13.57
2023-08-07T02:46:26.019Z,13.58
2023-08-07T02:47:25.972Z,13.57
2023-08-07T02:48:25.902Z,13.58
2023-08-07T02:49:25.966Z,13.61
2023-08-07T02:50:25.914Z,13.64
2023-08-07T02:51:25.892Z,13.60
2023-08-07T02:52:25.941Z,13.54
2023-08-07T02:53:25.881Z,13.54
2023-08-07T02:54:25.848Z,13.57
2023-08-07T02:55:25.845Z,13.61
2023-08-07T02:56:25.841Z,13.61
2023-08-07T02:57:25.794Z,13.55
2023-08-07T02:58:25.878Z,13.52
2023-08-07T02:59:25.802Z,13.53
2023-08-07T03:00:25.778Z,13.54
2023-08-07T03:01:25.814Z,13.55
2023-08-07T03:02:25.818Z,13.60
2023-08-07T03:03:25.780Z,13.62
2023-08-07T03:04:25.765Z,13.57
2023-08-07T03:05:25.841Z,13.50
2023-08-07T03:06:25.702Z,13.46
2023-08-07T03:07:25.750Z,13.46
2023-08-07T03:08:25.687Z,13.50
2023-08-07T03:09:25.683Z,13.50
2023-08-07T03:10:26.832Z,13.45
2023-08-07T03:11:25.673Z,13.42
2023-08-07T03:12:25.645Z,13.47
2023-08-07T03:13:25.653Z,13.52
2023-08-07T03:14:25.651Z,13.56
2023-08-07T03:15:25.648Z,13.57
2023-08-07T03:16:25.655Z,13.56
2023-08-07T03:17:25.696Z,13.55
2023-08-07T03:18:25.582Z,13.53
2023-08-07T03:19:25.575Z,13.52
2023-08-07T03:20:25.600Z,13.54
2023-08-07T03:21:25.558Z,13.55
2023-08-07T03:22:25.555Z,13.55
2023-08-07T03:23:25.572Z,13.53
2023-08-07T03:24:25.533Z,13.51
2023-08-07T03:25:25.611Z,13.47
2023-08-07T03:26:25.525Z,13.44
2023-08-07T03:27:25.501Z,13.46
2023-08-07T03:28:25.474Z,13.50
2023-08-07T03:29:25.516Z,13.52
2023-08-07T03:30:25.484Z,13.56
2023-08-07T03:31:25.510Z,13.58
2023-08-07T03:32:25.483Z,13.58
2023-08-07T03:33:25.480Z,13.58
2023-08-07T03:34:25.422Z,13.53
2023-08-07T03:35:25.457Z,13.47
2023-08-07T03:36:25.419Z,13.45
2023-08-07T03:37:25.428Z,13.49
2023-08-07T03:38:25.401Z,13.53
2023-08-07T03:39:25.368Z,13.52
2023-08-07T03:40:25.425Z,13.46
2023-08-07T03:41:25.350Z,13.39
2023-08-07T03:42:25.351Z,13.35
2023-08-07T03:43:25.318Z,13.37
2023-08-07T03:44:25.326Z,13.40
2023-08-07T03:45:25.332Z,13.40
2023-08-07T03:46:25.313Z,13.38
2023-08-07T03:47:25.303Z,13.40
2023-08-07T03:48:25.298Z,13.45
2023-08-07T03:49:25.266Z,13.48
2023-08-07T03:50:25.282Z,13.50
2023-08-07T03:51:25.357Z,13.53
2023-08-07T03:52:25.276Z,13.53
2023-08-07T03:53:25.219Z,13.49
2023-08-07T03:54:25.263Z,13.48
2023-08-07T03:55:25.238Z,13.53
2023-08-07T03:56:25.193Z,13.59
2023-08-07T03:57:25.173Z,13.64
2023-08-07T03:58:25.209Z,13.63
2023-08-07T03:59:25.163Z,13.60
2023-08-07T04:00:25.196Z,13.61
2023-08-07T04:01:25.231Z,13.64
2023-08-07T04:02:25.178Z,13.69
2023-08-07T04:03:25.217Z,13.69
2023-08-07T04:04:25.193Z,13.67
2023-08-07T04:05:25.127Z,13.64
2023-08-07T04:06:25.152Z,13.63
2023-08-07T04:07:25.096Z,13.63
2023-08-07T04:08:25.137Z,13.60
2023-08-07T04:09:25.068Z,13.52
2023-08-07T04:10:25.078Z,13.45
2023-08-07T04:11:25.123Z,13.42
2023-08-07T04:12:25.070Z,13.39
2023-08-07T04:13:25.058Z,13.38
2023-08-07T04:14:24.995Z,13.40
2023-08-07T04:15:25.006Z,13.42
2023-08-07T04:16:25.063Z,13.39
2023-08-07T04:17:25.045Z,13.35
2023-08-07T04:18:24.977Z,13.35
2023-08-07T04:19:24.974Z,13.37
2023-08-07T04:20:24.956Z,13.41
2023-08-07T04:21:24.948Z,13.46
2023-08-07T04:22:24.939Z,13.49
2023-08-07T04:23:24.957Z,13.48
2023-08-07T04:24:24.908Z,13.46
2023-08-07T04:25:24.909Z,13.47
2023-08-07T04:26:24.866Z,13.47
2023-08-07T04:27:24.908Z,13.49
2023-08-07T04:28:24.882Z,13.52
2023-08-07T04:29:24.924Z,13.53
2023-08-07T04:30:24.837Z,13.53
2023-08-07T04:31:24.886Z,13.54
2023-08-07T04:32:26.585Z,13.53
2023-08-07T04:33:24.831Z,13.52
2023-08-07T04:34:24.793Z,13.51
2023-08-07T04:35:24.810Z,13.51
2023-08-07T04:36:24.807Z,13.52
2023-08-07T04:37:24.760Z,13.55
2023-08-07T04:38:24.763Z,13.60
2023-08-07T04:39:24.754Z,13.63
2023-08-07T04:40:24.729Z,13.66
2023-08-07T04:41:24.757Z,13.67
2023-08-07T04:42:24.741Z,13.62
2023-08-07T04:43:24.732Z,13.58
2023-08-07T04:44:24.679Z,13.57
2023-08-07T04:45:24.690Z,13.58
2023-08-07T04:46:25.000Z,13.62
2023-08-07T04:47:24.715Z,13.61
2023-08-07T04:48:24.653Z,13.55
2023-08-07T04:49:24.661Z,13.54
2023-08-07T04:50:24.647Z,13.57
2023-08-07T04:51:24.616Z,13.61
2023-08-07T04:52:26.843Z,13.61
2023-08-07T04:53:24.632Z,13.60
2023-08-07T04:54:24.608Z,13.58
2023-08-07T04:55:24.594Z,13.57
2023-08-07T04:56:24.566Z,13.60
2023-08-07T04:57:24.580Z,13.64
2023-08-07T04:58:24.554Z,13.68
2023-08-07T04:59:24.616Z,13.67
2023-08-07T05:00:24.532Z,13.58
2023-08-07T05:01:24.561Z,13.54
2023-08-07T05:02:24.589Z,13.55
2023-08-07T05:03:24.607Z,13.56
2023-08-07T05:04:24.684Z,13.56
2023-08-07T05:05:24.656Z,13.55
2023-08-07T05:06:24.507Z,13.54
2023-08-07T05:07:24.444Z,13.56
2023-08-07T05:08:24.435Z,13.55
2023-08-07T05:09:24.609Z,13.51
2023-08-07T05:10:24.422Z,13.48
2023-08-07T05:11:24.603Z,13.45
2023-08-07T05:12:24.411Z,13.44
2023-08-07T05:13:24.414Z,13.47
2023-08-07T05:14:24.370Z,13.49
2023-08-07T05:15:24.418Z,13.50
2023-08-07T05:16:24.486Z,13.51
2023-08-07T05:17:24.378Z,13.54
2023-08-07T05:18:24.337Z,13.57
2023-08-07T05:19:24.334Z,13.60
2023-08-07T05:20:24.342Z,13.57
2023-08-07T05:21:24.328Z,13.49
2023-08-07T05:22:24.313Z,13.43
2023-08-07T05:23:24.277Z,13.40
2023-08-07T05:24:24.273Z,13.38
2023-08-07T05:25:24.286Z,13.41
2023-08-07T05:26:24.260Z,13.46
2023-08-07T05:27:24.262Z,13.55
2023-08-07T05:28:24.225Z,13.59
2023-08-07T05:29:24.218Z,13.60
2023-08-07T05:30:24.206Z,13.59
2023-08-07T05:31:24.194Z,13.54
2023-08-07T05:32:24.262Z,13.52
2023-08-07T05:33:24.199Z,13.56
2023-08-07T05:34:24.171Z,13.62
2023-08-07T05:35:24.173Z,13.61
2023-08-07T05:36:24.155Z,13.57
2023-08-07T05:37:24.144Z,13.57
2023-08-07T05:38:24.230Z,13.58
2023-08-07T05:39:24.343Z,13.54
2023-08-07T05:40:24.182Z,13.48
2023-08-07T05:41:24.128Z,13.46
2023-08-07T05:42:24.079Z,13.44
2023-08-07T05:43:24.066Z,13.44
2023-08-07T05:44:24.081Z,13.47
2023-08-07T05:45:24.064Z,13.49
2023-08-07T05:46:24.091Z,13.50
2023-08-07T05:47:24.089Z,13.53
2023-08-07T05:48:24.024Z,13.52
2023-08-07T05:49:25.919Z,13.46
2023-08-07T05:50:24.024Z,13.39
2023-08-07T05:51:24.021Z,13.35
2023-08-07T05:52:24.000Z,13.32
2023-08-07T05:53:23.971Z,13.33
2023-08-07T05:54:23.981Z,13.36
2023-08-07T05:55:23.987Z,13.39
2023-08-07T05:56:24.008Z,13.42
2023-08-07T05:57:23.936Z,13.45
2023-08-07T05:58:23.950Z,13.48
2023-08-07T05:59:23.907Z,13.52
2023-08-07T06:00:23.911Z,13.56
2023-08-07T06:01:23.934Z,13.61
2023-08-07T06:02:23.911Z,13.64
2023-08-07T06:03:23.884Z,13.67
2023-08-07T06:04:23.918Z,13.69
2023-08-07T06:05:23.880Z,13.68
2023-08-07T06:06:23.872Z,13.66
2023-08-07T06:07:23.897Z,13.62
2023-08-07T06:08:23.814Z,13.57
2023-08-07T06:09:23.842Z,13.56
2023-08-07T06:10:23.808Z,13.58
2023-08-07T06:11:23.781Z,13.62
2023-08-07T06:12:23.793Z,13.63
2023-08-07T06:13:35.490Z,13.61
2023-08-07T06:14:23.789Z,13.56
2023-08-07T06:15:23.779Z,13.51
2023-08-07T06:16:23.853Z,13.52
2023-08-07T06:17:23.758Z,13.57
2023-08-07T06:18:23.711Z,13.64
2023-08-07T06:19:31.404Z,13.68
2023-08-07T06:20:23.708Z,13.68
2023-08-07T06:21:23.684Z,13.68
2023-08-07T06:22:24.051Z,13.68
2023-08-07T06:23:23.690Z,13.70
2023-08-07T06:24:23.657Z,13.75
2023-08-07T06:25:23.678Z,13.79
2023-08-07T06:26:23.650Z,13.83
2023-08-07T06:27:23.611Z,13.85
2023-08-07T06:28:23.630Z,13.84
2023-08-07T06:29:23.643Z,13.82
2023-08-07T06:30:23.589Z,13.85
2023-08-07T06:31:24.071Z,13.88
2023-08-07T06:32:24.653Z,13.90
2023-08-07T06:33:24.408Z,13.85
2023-08-07T06:34:24.438Z,13.80
2023-08-07T06:35:24.497Z,13.77
2023-08-07T06:36:23.518Z,13.75
2023-08-07T06:37:23.553Z,13.76
2023-08-07T06:38:23.514Z,13.77
2023-08-07T06:39:23.500Z,13.78
2023-08-07T06:40:23.496Z,13.80
2023-08-07T06:41:23.478Z,13.82
2023-08-07T06:42:23.464Z,13.82
2023-08-07T06:43:23.539Z,13.82
2023-08-07T06:44:23.452Z,13.81
2023-08-07T06:45:23.442Z,13.80
2023-08-07T06:46:23.536Z,13.82
2023-08-07T06:47:23.444Z,13.84
2023-08-07T06:48:23.395Z,13.87
2023-08-07T06:49:23.437Z,13.91
2023-08-07T06:50:23.384Z,13.96
2023-08-07T06:51:23.385Z,14.00
2023-08-07T06:52:23.353Z,14.04
2023-08-07T06:53:23.388Z,14.04
2023-08-07T06:54:23.416Z,14.02
2023-08-07T06:55:23.356Z,14.02
2023-08-07T06:56:23.319Z,14.05
2023-08-07T06:57:23.309Z,14.10
2023-08-07T06:58:23.293Z,14.11
2023-08-07T06:59:23.282Z,14.11
2023-08-07T07:00:23.307Z,14.14
2023-08-07T07:01:23.368Z,14.15
2023-08-07T07:02:23.358Z,14.11
2023-08-07T07:03:23.324Z,14.09
2023-08-07T07:04:23.236Z,14.08
2023-08-07T07:05:23.232Z,14.07
2023-08-07T07:06:23.245Z,14.10
2023-08-07T07:07:23.220Z,14.16
2023-08-07T07:08:23.227Z,14.22
2023-08-07T07:09:23.210Z,14.28
2023-08-07T07:10:23.245Z,14.29
2023-08-07T07:11:23.160Z,14.25
2023-08-07T07:12:23.175Z,14.23
2023-08-07T07:13:23.156Z,14.25
2023-08-07T07:14:23.139Z,14.27
2023-08-07T07:15:23.139Z,14.28
2023-08-07T07:16:23.440Z,14.27
2023-08-07T07:17:23.179Z,14.27
2023-08-07T07:18:23.126Z,14.30
2023-08-07T07:19:23.098Z,14.32
2023-08-07T07:20:23.078Z,14.34
2023-08-07T07:21:23.104Z,14.31
2023-08-07T07:22:23.118Z,14.29
2023-08-07T07:23:23.069Z,14.30
2023-08-07T07:24:23.028Z,14.31
2023-08-07T07:25:23.050Z,14.32
2023-08-07T07:26:23.020Z,14.31
2023-08-07T07:27:23.529Z,14.30
2023-08-07T07:28:22.987Z,14.31
2023-08-07T07:29:22.979Z,14.35
2023-08-07T07:30:23.030Z,14.39
2023-08-07T07:31:23.048Z,14.42
2023-08-07T07:32:22.961Z,14.46
2023-08-07T07:33:22.946Z,14.51
2023-08-07T07:34:22.924Z,14.56
2023-08-07T07:35:22.953Z,14.60
2023-08-07T07:36:22.966Z,14.65
2023-08-07T07:37:22.995Z,14.73
2023-08-07T07:38:22.894Z,14.82
2023-08-07T07:39:22.887Z,14.91
2023-08-07T07:40:22.856Z,14.99
2023-08-07T07:41:22.858Z,15.07
2023-08-07T07:42:22.865Z,15.13
2023-08-07T07:43:23.170Z,15.17
2023-08-07T07:44:22.861Z,15.21
2023-08-07T07:45:22.826Z,15.23
2023-08-07T07:46:22.810Z,15.22
2023-08-07T07:47:22.839Z,15.22
2023-08-07T07:48:22.821Z,15.25
2023-08-07T07:49:22.816Z,15.27
2023-08-07T07:50:22.790Z,15.22
2023-08-07T07:51:22.793Z,15.16
2023-08-07T07:52:22.793Z,15.16
2023-08-07T07:53:24.747Z,15.15
2023-08-07T07:54:22.731Z,15.14
2023-08-07T07:55:22.809Z,15.13
2023-08-07T07:56:22.745Z,15.12
2023-08-07T07:57:22.709Z,15.08
2023-08-07T07:58:22.707Z,15.03
2023-08-07T07:59:22.663Z,14.99
2023-08-07T08:00:22.655Z,14.97
2023-08-07T08:01:22.657Z,14.95
2023-08-07T08:02:22.647Z,14.88
2023-08-07T08:03:22.736Z,14.83
2023-08-07T08:04:22.775Z,14.82
2023-08-07T08:05:22.638Z,14.82
2023-08-07T08:06:22.608Z,14.81
2023-08-07T08:07:22.615Z,14.75
2023-08-07T08:08:22.611Z,14.66
2023-08-07T08:09:22.599Z,14.60
2023-08-07T08:10:22.544Z,14.56
2023-08-07T08:11:22.601Z,14.54
2023-08-07T08:12:22.525Z,14.54
2023-08-07T08:13:22.571Z,14.55
2023-08-07T08:14:22.534Z,14.57
2023-08-07T08:15:22.693Z,14.56
2023-08-07T08:16:22.559Z,14.53
2023-08-07T08:17:22.534Z,14.46
2023-08-07T08:18:22.483Z,14.42
2023-08-07T08:19:22.709Z,14.42
2023-08-07T08:20:22.440Z,14.40
2023-08-07T08:21:22.440Z,14.38
2023-08-07T08:22:22.429Z,14.38
2023-08-07T08:23:22.434Z,14.40
2023-08-07T08:24:22.431Z,14.43
2023-08-07T08:25:22.430Z,14.54
2023-08-07T08:26:22.421Z,14.80
2023-08-07T08:27:22.465Z,15.18
2023-08-07T08:28:24.986Z,15.65
2023-08-07T08:29:22.381Z,16.16
2023-08-07T08:30:22.371Z,16.66
2023-08-07T08:31:22.393Z,17.16
2023-08-07T08:32:22.362Z,17.67
2023-08-07T08:33:22.316Z,18.12
2023-08-07T08:34:22.321Z,18.39
2023-08-07T08:35:22.322Z,18.61
2023-08-07T08:36:22.277Z,18.88
2023-08-07T08:37:22.284Z,19.19
2023-08-07T08:38:24.804Z,19.57
2023-08-07T08:39:22.276Z,19.98
2023-08-07T08:40:22.241Z,20.25
2023-08-07T08:41:22.250Z,20.49
2023-08-07T08:42:22.212Z,20.71
2023-08-07T08:43:22.222Z,20.78
2023-08-07T08:44:22.212Z,20.74
2023-08-07T08:45:22.354Z,20.58
2023-08-07T08:46:22.323Z,20.24
2023-08-07T08:47:22.226Z,19.76
2023-08-07T08:48:22.165Z,19.22
2023-08-07T08:49:22.164Z,18.69
2023-08-07T08:50:22.146Z,18.26
2023-08-07T08:51:22.121Z,17.97
2023-08-07T08:52:22.123Z,17.72
2023-08-07T08:53:22.156Z,17.45
2023-08-07T08:54:22.145Z,17.23
2023-08-07T08:55:22.123Z,17.09
2023-08-07T08:56:22.083Z,16.99
2023-08-07T08:57:22.071Z,16.88
2023-08-07T08:58:22.050Z,16.75
2023-08-07T08:59:22.043Z,16.65
2023-08-07T09:00:22.055Z,16.61
2023-08-07T09:01:25.063Z,16.69
2023-08-07T09:02:22.037Z,16.84
2023-08-07T09:03:22.087Z,17.01
2023-08-07T09:04:22.032Z,17.32
2023-08-07T09:05:22.003Z,17.72
2023-08-07T09:06:21.977Z,18.08
2023-08-07T09:07:21.999Z,18.42
2023-08-07T09:08:21.949Z,18.82
2023-08-07T09:09:21.954Z,19.20
2023-08-07T09:10:21.952Z,19.35
2023-08-07T09:11:21.919Z,19.20
2023-08-07T09:12:21.933Z,18.97
2023-08-07T09:13:21.901Z,18.91
2023-08-07T09:14:21.876Z,19.05
2023-08-07T09:15:21.888Z,19.28
2023-08-07T09:16:21.882Z,19.35
2023-08-07T09:17:21.917Z,19.24
2023-08-07T09:18:21.855Z,19.18
2023-08-07T09:19:21.855Z,19.12
2023-08-07T09:20:21.821Z,18.99
2023-08-07T09:21:21.904Z,18.82
2023-08-07T09:22:21.814Z,18.56
2023-08-07T09:23:21.799Z,18.29
2023-08-07T09:24:22.812Z,18.07
2023-08-07T09:25:21.900Z,17.88
2023-08-07T09:26:21.767Z,17.73
2023-08-07T09:27:21.756Z,17.59
2023-08-07T09:28:21.890Z,17.53
2023-08-07T09:29:21.769Z,17.64
2023-08-07T09:30:21.799Z,17.83
2023-08-07T09:31:21.940Z,18.04
2023-08-07T09:32:21.711Z,18.32
2023-08-07T09:33:21.695Z,18.64
2023-08-07T09:34:21.730Z,18.93
2023-08-07T09:35:21.684Z,19.02
2023-08-07T09:36:21.709Z,18.97
2023-08-07T09:37:21.650Z,18.86
2023-08-07T09:38:21.705Z,18.74
2023-08-07T09:39:21.653Z,18.65
2023-08-07T09:40:21.689Z,18.57
2023-08-07T09:41:21.703Z,18.52
2023-08-07T09:42:21.696Z,18.58
2023-08-07T09:43:21.700Z,18.58
2023-08-07T09:44:21.703Z,18.53
2023-08-07T09:45:21.687Z,18.49
2023-08-07T09:46:21.720Z,18.47
2023-08-07T09:47:21.630Z,18.35
2023-08-07T09:48:21.669Z,18.21
2023-08-07T09:49:21.538Z,18.03
2023-08-07T09:50:21.528Z,17.77
2023-08-07T09:51:21.499Z,17.51
2023-08-07T09:52:21.527Z,17.27
2023-08-07T09:53:21.487Z,17.11
2023-08-07T09:54:21.501Z,16.98
2023-08-07T09:55:21.483Z,16.88
2023-08-07T09:56:21.458Z,16.82
2023-08-07T09:57:21.497Z,16.77
2023-08-07T09:58:21.451Z,16.74
2023-08-07T09:59:21.454Z,16.73
2023-08-07T10:00:21.502Z,16.71
2023-08-07T10:01:21.497Z,16.66
2023-08-07T10:02:21.459Z,16.57
2023-08-07T10:03:21.459Z,16.49
2023-08-07T10:04:21.374Z,16.49
2023-08-07T10:05:21.375Z,16.57
2023-08-07T10:06:21.371Z,16.73
2023-08-07T10:07:21.342Z,17.05
2023-08-07T10:08:21.332Z,17.46
2023-08-07T10:09:21.336Z,17.91
2023-08-07T10:10:21.344Z,18.41
2023-08-07T10:11:21.326Z,18.91
2023-08-07T10:12:21.310Z,19.36
2023-08-07T10:13:25.794Z,19.66
2023-08-07T10:14:21.290Z,19.82
2023-08-07T10:15:21.305Z,19.89
2023-08-07T10:16:21.334Z,20.08
2023-08-07T10:17:21.256Z,20.43
2023-08-07T10:18:21.231Z,20.74
2023-08-07T10:19:21.218Z,21.05
2023-08-07T10:20:21.221Z,21.39
2023-08-07T10:21:21.199Z,21.74
2023-08-07T10:22:21.222Z,21.65
2023-08-07T10:23:21.182Z,21.46
2023-08-07T10:24:21.159Z,21.61
2023-08-07T10:25:21.157Z,21.91
2023-08-07T10:26:21.165Z,22.29
2023-08-07T10:27:21.135Z,22.59
2023-08-07T10:28:21.157Z,22.84
2023-08-07T10:29:21.133Z,23.09
2023-08-07T10:30:21.115Z,23.18
2023-08-07T10:31:21.134Z,23.30
2023-08-07T10:32:21.092Z,23.48
2023-08-07T10:33:21.104Z,23.44
2023-08-07T10:34:21.092Z,23.35
2023-08-07T10:35:21.056Z,23.28
2023-08-07T10:36:21.035Z,23.27
2023-08-07T10:37:21.029Z,23.34
2023-08-07T10:38:21.027Z,23.47
2023-08-07T10:39:21.018Z,23.54
2023-08-07T10:40:21.012Z,23.50
2023-08-07T10:41:20.986Z,23.31
2023-08-07T10:42:20.977Z,23.03
2023-08-07T10:43:20.997Z,22.46
2023-08-07T10:44:20.971Z,21.79
2023-08-07T10:45:20.949Z,21.25
2023-08-07T10:46:23.717Z,20.74
2023-08-07T10:47:20.964Z,20.23
2023-08-07T10:48:20.985Z,19.82
2023-08-07T10:49:20.940Z,19.52
2023-08-07T10:50:20.896Z,19.32
2023-08-07T10:51:20.892Z,19.13
2023-08-07T10:52:20.877Z,18.88
2023-08-07T10:53:20.921Z,18.67
2023-08-07T10:54:20.856Z,18.57
2023-08-07T10:55:20.868Z,18.49
2023-08-07T10:56:20.837Z,18.42
2023-08-07T10:57:20.848Z,18.36
2023-08-07T10:58:20.814Z,18.28
2023-08-07T10:59:20.810Z,18.20
2023-08-07T11:00:20.801Z,18.14
2023-08-07T11:01:21.019Z,18.14
2023-08-07T11:02:20.791Z,18.36
2023-08-07T11:03:20.776Z,18.72
2023-08-07T11:04:20.743Z,19.23
2023-08-07T11:05:20.819Z,19.76
2023-08-07T11:06:20.729Z,20.24
2023-08-07T11:07:20.718Z,20.57
2023-08-07T11:08:20.750Z,20.64
2023-08-07T11:09:20.729Z,20.61
2023-08-07T11:10:20.724Z,20.65
2023-08-07T11:11:20.694Z,20.62
2023-08-07T11:12:20.661Z,20.69
2023-08-07T11:13:20.689Z,20.93
2023-08-07T11:14:20.734Z,21.18
2023-08-07T11:15:20.668Z,21.21
2023-08-07T11:16:20.716Z,21.06
2023-08-07T11:17:20.747Z,20.85
2023-08-07T11:18:20.625Z,20.61
2023-08-07T11:19:20.633Z,20.40
2023-08-07T11:20:20.622Z,20.22
2023-08-07T11:21:20.643Z,19.99
2023-08-07T11:22:20.596Z,19.69
2023-08-07T11:23:20.559Z,19.47
2023-08-07T11:24:20.582Z,19.25
2023-08-07T11:25:20.529Z,19.04
2023-08-07T11:26:20.530Z,18.99
2023-08-07T11:27:20.508Z,18.96
2023-08-07T11:28:20.530Z,18.81
2023-08-07T11:29:20.523Z,18.66
2023-08-07T11:30:20.494Z,18.48
2023-08-07T11:31:20.781Z,18.38
2023-08-07T11:32:20.525Z,18.51
2023-08-07T11:33:20.611Z,18.67
2023-08-07T11:34:20.451Z,18.80
2023-08-07T11:35:20.493Z,18.87
2023-08-07T11:36:20.467Z,18.88
2023-08-07T11:37:20.412Z,18.87
2023-08-07T11:38:20.485Z,18.86
2023-08-07T11:39:20.389Z,18.80
2023-08-07T11:40:20.366Z,18.79
2023-08-07T11:41:20.377Z,18.80
2023-08-07T11:42:20.399Z,18.78
2023-08-07T11:43:20.385Z,18.79
2023-08-07T11:44:20.572Z,18.65
2023-08-07T11:45:20.392Z,18.38
2023-08-07T11:46:20.314Z,18.26
2023-08-07T11:47:20.319Z,18.24
2023-08-07T11:48:20.321Z,18.26
2023-08-07T11:49:20.270Z,18.33
2023-08-07T11:50:20.312Z,18.44
2023-08-07T11:51:20.252Z,18.50
2023-08-07T11:52:20.252Z,18.59
2023-08-07T11:53:20.266Z,18.75
2023-08-07T11:54:20.279Z,18.86
2023-08-07T11:55:20.280Z,18.88
2023-08-07T11:56:20.219Z,18.88
2023-08-07T11:57:20.250Z,18.86
2023-08-07T11:58:20.195Z,18.84
2023-08-07T11:59:20.293Z,18.76
2023-08-07T12:00:20.191Z,18.71
2023-08-07T12:01:22.432Z,18.67
2023-08-07T12:02:20.219Z,18.59
2023-08-07T12:03:20.182Z,18.54
2023-08-07T12:04:20.164Z,18.58
2023-08-07T12:05:20.194Z,18.59
2023-08-07T12:06:20.137Z,18.48
2023-08-07T12:07:20.101Z,18.24
2023-08-07T12:08:20.108Z,18.05
2023-08-07T12:09:20.095Z,18.04
2023-08-07T12:10:20.057Z,18.15
2023-08-07T12:11:20.051Z,18.27
2023-08-07T12:12:20.033Z,18.28
2023-08-07T12:13:20.060Z,18.19
2023-08-07T12:14:20.048Z,18.13
2023-08-07T12:15:20.012Z,18.13
2023-08-07T12:16:20.091Z,18.19
2023-08-07T12:17:19.990Z,18.22
2023-08-07T12:18:19.993Z,18.20
2023-08-07T12:19:19.976Z,18.21
2023-08-07T12:20:19.983Z,18.25
2023-08-07T12:21:19.982Z,18.26
2023-08-07T12:22:19.941Z,18.24
2023-08-07T12:23:19.933Z,18.25
2023-08-07T12:24:19.936Z,18.23
2023-08-07T12:25:19.921Z,18.17
2023-08-07T12:26:19.918Z,18.16
2023-08-07T12:27:19.900Z,18.20
2023-08-07T12:28:19.888Z,18.23
2023-08-07T12:29:19.882Z,18.27
2023-08-07T12:30:19.912Z,18.33
2023-08-07T12:31:19.992Z,18.36
2023-08-07T12:32:19.944Z,18.35
2023-08-07T12:33:19.834Z,18.28
2023-08-07T12:35:19.875Z,18.01
2023-08-07T12:36:20.834Z,18.05
2023-08-07T12:37:19.828Z,18.16
2023-08-07T12:38:19.770Z,18.24
2023-08-07T12:39:20.089Z,18.29
2023-08-07T12:43:19.742Z,17.94
2023-08-07T12:44:19.707Z,17.90
2023-08-07T12:47:19.721Z,17.91
2023-08-07T12:48:19.759Z,17.87
2023-08-07T12:49:19.661Z,17.85
2023-08-07T12:50:19.710Z,17.84
2023-08-07T12:51:19.643Z,17.83
2023-08-07T12:52:19.653Z,17.85
2023-08-07T12:53:19.620Z,17.88
2023-08-07T12:54:19.649Z,17.88
2023-08-07T12:55:19.606Z,17.90
2023-08-07T12:56:19.602Z,17.98
2023-08-07T12:57:19.578Z,17.98
2023-08-07T12:58:19.583Z,17.94